sensor_id;sensor_type;location;lat;lon;timestamp;P1;durP1;ratioP1;P2;durP2;ratioP2
45548;SDS011;31270;48.328;10.096;2022-12-20T00:01:31;54.70;;;30.27;;
45548;SDS011;31270;48.328;10.096;2022-12-20T00:03:59;54.60;;;30.23;;
45548;SDS011;31270;48.328;10.096;2022-12-20T00:06:26;55.23;;;30.57;;
45548;SDS011;31270;48.328;10.096;2022-12-20T00:08:54;57.70;;;31.33;;
45548;SDS011;31270;48.328;10.096;2022-12-20T00:11:21;52.23;;;30.83;;
45548;SDS011;31270;48.328;10.096;2022-12-20T00:13:47;49.33;;;29.27;;
45548;SDS011;31270;48.328;10.096;2022-12-20T00:16:13;43.63;;;28.47;;
45548;SDS011;31270;48.328;10.096;2022-12-20T00:18:42;48.37;;;28.37;;
45548;SDS011;31270;48.328;10.096;2022-12-20T00:21:10;52.43;;;30.37;;
45548;SDS011;31270;48.328;10.096;2022-12-20T00:23:37;53.83;;;28.27;;
45548;SDS011;31270;48.328;10.096;2022-12-20T00:26:05;50.87;;;29.70;;
45548;SDS011;31270;48.328;10.096;2022-12-20T00:28:36;53.90;;;28.90;;
45548;SDS011;31270;48.328;10.096;2022-12-20T00:31:04;56.23;;;30.53;;
45548;SDS011;31270;48.328;10.096;2022-12-20T00:33:31;51.53;;;29.30;;
45548;SDS011;31270;48.328;10.096;2022-12-20T00:35:58;52.87;;;29.90;;
45548;SDS011;31270;48.328;10.096;2022-12-20T00:38:24;52.87;;;30.43;;
45548;SDS011;31270;48.328;10.096;2022-12-20T00:41:03;52.90;;;30.77;;
45548;SDS011;31270;48.328;10.096;2022-12-20T00:43:30;50.53;;;29.60;;
45548;SDS011;31270;48.328;10.096;2022-12-20T00:45:57;53.10;;;29.57;;
45548;SDS011;31270;48.328;10.096;2022-12-20T00:48:23;49.37;;;29.83;;
45548;SDS011;31270;48.328;10.096;2022-12-20T00:50:49;51.57;;;30.40;;
45548;SDS011;31270;48.328;10.096;2022-12-20T00:53:14;51.67;;;31.40;;
45548;SDS011;31270;48.328;10.096;2022-12-20T00:55:43;52.27;;;30.63;;
45548;SDS011;31270;48.328;10.096;2022-12-20T00:58:10;51.00;;;29.40;;
45548;SDS011;31270;48.328;10.096;2022-12-20T01:00:37;52.90;;;30.73;;
45548;SDS011;31270;48.328;10.096;2022-12-20T01:03:03;49.53;;;28.67;;
45548;SDS011;31270;48.328;10.096;2022-12-20T01:05:30;54.70;;;31.27;;
45548;SDS011;31270;48.328;10.096;2022-12-20T01:07:55;55.07;;;31.00;;
45548;SDS011;31270;48.328;10.096;2022-12-20T01:10:21;54.47;;;29.70;;
45548;SDS011;31270;48.328;10.096;2022-12-20T01:12:47;50.60;;;30.20;;
45548;SDS011;31270;48.328;10.096;2022-12-20T01:15:12;57.27;;;30.77;;
45548;SDS011;31270;48.328;10.096;2022-12-20T01:17:38;45.30;;;28.23;;
45548;SDS011;31270;48.328;10.096;2022-12-20T01:20:04;53.23;;;30.50;;
45548;SDS011;31270;48.328;10.096;2022-12-20T01:22:30;50.03;;;29.10;;
45548;SDS011;31270;48.328;10.096;2022-12-20T01:24:56;52.20;;;29.47;;
45548;SDS011;31270;48.328;10.096;2022-12-20T01:27:21;52.23;;;28.93;;
45548;SDS011;31270;48.328;10.096;2022-12-20T01:29:47;50.47;;;28.67;;
45548;SDS011;31270;48.328;10.096;2022-12-20T01:32:13;50.97;;;30.13;;
45548;SDS011;31270;48.328;10.096;2022-12-20T01:34:39;51.23;;;29.40;;
45548;SDS011;31270;48.328;10.096;2022-12-20T01:37:04;51.00;;;29.17;;
45548;SDS011;31270;48.328;10.096;2022-12-20T01:39:30;50.07;;;28.20;;
45548;SDS011;31270;48.328;10.096;2022-12-20T01:41:55;47.43;;;28.70;;
45548;SDS011;31270;48.328;10.096;2022-12-20T01:46:47;44.70;;;27.40;;
45548;SDS011;31270;48.328;10.096;2022-12-20T01:49:16;48.60;;;28.77;;
45548;SDS011;31270;48.328;10.096;2022-12-20T01:52:29;48.77;;;26.53;;
45548;SDS011;31270;48.328;10.096;2022-12-20T01:55:03;43.80;;;26.90;;
45548;SDS011;31270;48.328;10.096;2022-12-20T01:57:38;45.13;;;26.53;;
45548;SDS011;31270;48.328;10.096;2022-12-20T02:00:09;45.60;;;27.03;;
45548;SDS011;31270;48.328;10.096;2022-12-20T02:02:36;38.93;;;24.40;;
45548;SDS011;31270;48.328;10.096;2022-12-20T02:05:02;41.43;;;25.20;;
45548;SDS011;31270;48.328;10.096;2022-12-20T02:07:29;42.83;;;24.53;;
45548;SDS011;31270;48.328;10.096;2022-12-20T02:09:58;37.17;;;24.57;;
45548;SDS011;31270;48.328;10.096;2022-12-20T02:12:28;39.77;;;24.33;;
45548;SDS011;31270;48.328;10.096;2022-12-20T02:21:03;40.43;;;24.40;;
45548;SDS011;31270;48.328;10.096;2022-12-20T02:29:25;42.17;;;24.97;;
45548;SDS011;31270;48.328;10.096;2022-12-20T02:32:24;45.23;;;24.70;;
45548;SDS011;31270;48.328;10.096;2022-12-20T02:34:51;44.43;;;24.90;;
45548;SDS011;31270;48.328;10.096;2022-12-20T02:37:17;61.23;;;28.87;;
45548;SDS011;31270;48.328;10.096;2022-12-20T02:39:43;62.90;;;29.97;;
45548;SDS011;31270;48.328;10.096;2022-12-20T02:42:14;85.57;;;37.13;;
45548;SDS011;31270;48.328;10.096;2022-12-20T02:44:49;81.70;;;36.50;;
45548;SDS011;31270;48.328;10.096;2022-12-20T02:50:11;61.03;;;32.17;;
45548;SDS011;31270;48.328;10.096;2022-12-20T02:52:41;51.10;;;28.23;;
45548;SDS011;31270;48.328;10.096;2022-12-20T02:55:06;47.40;;;27.53;;
45548;SDS011;31270;48.328;10.096;2022-12-20T03:00:24;50.40;;;26.53;;
45548;SDS011;31270;48.328;10.096;2022-12-20T03:02:53;47.53;;;25.70;;
45548;SDS011;31270;48.328;10.096;2022-12-20T03:05:42;43.20;;;26.53;;
45548;SDS011;31270;48.328;10.096;2022-12-20T03:08:10;45.27;;;25.30;;
45548;SDS011;31270;48.328;10.096;2022-12-20T03:10:36;39.03;;;24.10;;
45548;SDS011;31270;48.328;10.096;2022-12-20T03:13:02;42.40;;;22.70;;
45548;SDS011;31270;48.328;10.096;2022-12-20T03:15:28;38.40;;;21.97;;
45548;SDS011;31270;48.328;10.096;2022-12-20T03:17:53;36.23;;;22.50;;
45548;SDS011;31270;48.328;10.096;2022-12-20T03:20:19;37.43;;;22.00;;
45548;SDS011;31270;48.328;10.096;2022-12-20T03:22:45;37.77;;;22.87;;
45548;SDS011;31270;48.328;10.096;2022-12-20T03:25:13;33.63;;;21.97;;
45548;SDS011;31270;48.328;10.096;2022-12-20T03:27:39;37.33;;;22.30;;
45548;SDS011;31270;48.328;10.096;2022-12-20T03:30:05;40.67;;;22.80;;
45548;SDS011;31270;48.328;10.096;2022-12-20T03:32:31;37.30;;;23.33;;
45548;SDS011;31270;48.328;10.096;2022-12-20T03:34:56;40.07;;;23.03;;
45548;SDS011;31270;48.328;10.096;2022-12-20T03:37:22;36.93;;;22.17;;
45548;SDS011;31270;48.328;10.096;2022-12-20T03:39:48;38.07;;;23.10;;
45548;SDS011;31270;48.328;10.096;2022-12-20T03:42:13;40.43;;;22.40;;
45548;SDS011;31270;48.328;10.096;2022-12-20T03:44:39;35.87;;;22.00;;
45548;SDS011;31270;48.328;10.096;2022-12-20T03:47:04;40.77;;;22.03;;
45548;SDS011;31270;48.328;10.096;2022-12-20T03:49:30;42.30;;;23.30;;
45548;SDS011;31270;48.328;10.096;2022-12-20T03:51:56;38.43;;;23.47;;
45548;SDS011;31270;48.328;10.096;2022-12-20T03:54:22;37.70;;;21.47;;
45548;SDS011;31270;48.328;10.096;2022-12-20T03:56:47;35.53;;;21.37;;
45548;SDS011;31270;48.328;10.096;2022-12-20T03:59:13;38.37;;;21.33;;
45548;SDS011;31270;48.328;10.096;2022-12-20T04:01:38;39.27;;;22.03;;
45548;SDS011;31270;48.328;10.096;2022-12-20T04:04:04;42.67;;;22.83;;
45548;SDS011;31270;48.328;10.096;2022-12-20T04:06:38;51.73;;;26.03;;
45548;SDS011;31270;48.328;10.096;2022-12-20T04:09:04;43.53;;;23.80;;
45548;SDS011;31270;48.328;10.096;2022-12-20T04:11:30;39.10;;;23.43;;
45548;SDS011;31270;48.328;10.096;2022-12-20T04:13:55;40.53;;;22.50;;
45548;SDS011;31270;48.328;10.096;2022-12-20T04:16:25;38.43;;;22.17;;
45548;SDS011;31270;48.328;10.096;2022-12-20T04:18:53;36.27;;;19.90;;
45548;SDS011;31270;48.328;10.096;2022-12-20T04:21:22;37.10;;;22.93;;
45548;SDS011;31270;48.328;10.096;2022-12-20T04:23:50;42.10;;;21.90;;
45548;SDS011;31270;48.328;10.096;2022-12-20T04:26:16;37.27;;;22.20;;
45548;SDS011;31270;48.328;10.096;2022-12-20T04:28:42;36.30;;;21.10;;
45548;SDS011;31270;48.328;10.096;2022-12-20T04:31:07;37.97;;;23.53;;
45548;SDS011;31270;48.328;10.096;2022-12-20T04:33:34;43.77;;;25.80;;
45548;SDS011;31270;48.328;10.096;2022-12-20T04:36:00;40.63;;;24.37;;
45548;SDS011;31270;48.328;10.096;2022-12-20T04:38:26;38.93;;;23.90;;
45548;SDS011;31270;48.328;10.096;2022-12-20T04:40:52;37.87;;;22.40;;
45548;SDS011;31270;48.328;10.096;2022-12-20T04:43:19;38.47;;;21.10;;
45548;SDS011;31270;48.328;10.096;2022-12-20T04:45:49;37.20;;;22.03;;
45548;SDS011;31270;48.328;10.096;2022-12-20T04:48:17;40.77;;;22.43;;
45548;SDS011;31270;48.328;10.096;2022-12-20T04:50:46;35.97;;;21.37;;
45548;SDS011;31270;48.328;10.096;2022-12-20T04:53:13;41.13;;;21.93;;
45548;SDS011;31270;48.328;10.096;2022-12-20T04:55:57;37.20;;;22.00;;
45548;SDS011;31270;48.328;10.096;2022-12-20T04:58:23;37.50;;;21.70;;
45548;SDS011;31270;48.328;10.096;2022-12-20T05:00:49;40.50;;;22.63;;
45548;SDS011;31270;48.328;10.096;2022-12-20T05:03:16;36.13;;;21.43;;
45548;SDS011;31270;48.328;10.096;2022-12-20T05:05:46;39.20;;;22.03;;
45548;SDS011;31270;48.328;10.096;2022-12-20T05:08:11;37.90;;;21.63;;
45548;SDS011;31270;48.328;10.096;2022-12-20T05:10:37;37.07;;;22.03;;
45548;SDS011;31270;48.328;10.096;2022-12-20T05:13:03;38.87;;;23.73;;
45548;SDS011;31270;48.328;10.096;2022-12-20T05:15:29;42.70;;;23.83;;
45548;SDS011;31270;48.328;10.096;2022-12-20T05:17:54;40.70;;;24.60;;
45548;SDS011;31270;48.328;10.096;2022-12-20T05:20:26;42.77;;;25.77;;
45548;SDS011;31270;48.328;10.096;2022-12-20T05:22:53;42.60;;;25.07;;
45548;SDS011;31270;48.328;10.096;2022-12-20T05:25:38;42.23;;;25.27;;
45548;SDS011;31270;48.328;10.096;2022-12-20T05:28:25;43.17;;;26.30;;
45548;SDS011;31270;48.328;10.096;2022-12-20T05:30:51;46.97;;;26.60;;
45548;SDS011;31270;48.328;10.096;2022-12-20T05:33:16;41.17;;;23.27;;
45548;SDS011;31270;48.328;10.096;2022-12-20T05:35:42;37.83;;;22.50;;
45548;SDS011;31270;48.328;10.096;2022-12-20T05:38:09;37.77;;;21.60;;
45548;SDS011;31270;48.328;10.096;2022-12-20T05:40:35;39.37;;;23.20;;
45548;SDS011;31270;48.328;10.096;2022-12-20T05:43:01;43.63;;;23.17;;
45548;SDS011;31270;48.328;10.096;2022-12-20T05:45:27;38.37;;;23.37;;
45548;SDS011;31270;48.328;10.096;2022-12-20T05:47:53;42.87;;;24.80;;
45548;SDS011;31270;48.328;10.096;2022-12-20T05:50:20;42.23;;;25.63;;
45548;SDS011;31270;48.328;10.096;2022-12-20T05:52:46;40.47;;;24.07;;
45548;SDS011;31270;48.328;10.096;2022-12-20T05:55:13;39.20;;;22.37;;
45548;SDS011;31270;48.328;10.096;2022-12-20T05:57:39;41.93;;;22.20;;
45548;SDS011;31270;48.328;10.096;2022-12-20T06:00:05;37.37;;;22.10;;
45548;SDS011;31270;48.328;10.096;2022-12-20T06:02:32;41.43;;;22.43;;
45548;SDS011;31270;48.328;10.096;2022-12-20T06:04:57;37.97;;;22.73;;
45548;SDS011;31270;48.328;10.096;2022-12-20T06:07:23;40.47;;;24.53;;
45548;SDS011;31270;48.328;10.096;2022-12-20T06:09:49;41.87;;;22.80;;
45548;SDS011;31270;48.328;10.096;2022-12-20T06:12:15;41.47;;;23.50;;
45548;SDS011;31270;48.328;10.096;2022-12-20T06:14:41;38.43;;;22.20;;
45548;SDS011;31270;48.328;10.096;2022-12-20T06:17:07;42.47;;;22.77;;
45548;SDS011;31270;48.328;10.096;2022-12-20T06:19:33;41.23;;;23.20;;
45548;SDS011;31270;48.328;10.096;2022-12-20T06:21:58;37.73;;;22.43;;
45548;SDS011;31270;48.328;10.096;2022-12-20T06:24:25;40.30;;;22.77;;
45548;SDS011;31270;48.328;10.096;2022-12-20T06:26:51;43.87;;;23.63;;
45548;SDS011;31270;48.328;10.096;2022-12-20T06:29:17;38.23;;;22.97;;
45548;SDS011;31270;48.328;10.096;2022-12-20T06:31:44;38.03;;;22.57;;
45548;SDS011;31270;48.328;10.096;2022-12-20T06:34:11;37.27;;;22.50;;
45548;SDS011;31270;48.328;10.096;2022-12-20T06:36:37;38.53;;;21.90;;
45548;SDS011;31270;48.328;10.096;2022-12-20T06:39:03;37.03;;;21.30;;
45548;SDS011;31270;48.328;10.096;2022-12-20T06:41:28;36.23;;;21.50;;
45548;SDS011;31270;48.328;10.096;2022-12-20T06:43:54;36.50;;;21.83;;
45548;SDS011;31270;48.328;10.096;2022-12-20T06:46:20;41.53;;;23.23;;
45548;SDS011;31270;48.328;10.096;2022-12-20T06:48:46;39.13;;;21.13;;
45548;SDS011;31270;48.328;10.096;2022-12-20T06:51:11;40.77;;;20.77;;
45548;SDS011;31270;48.328;10.096;2022-12-20T06:53:37;35.37;;;21.40;;
45548;SDS011;31270;48.328;10.096;2022-12-20T06:56:03;39.67;;;21.20;;
45548;SDS011;31270;48.328;10.096;2022-12-20T06:58:28;31.57;;;20.23;;
45548;SDS011;31270;48.328;10.096;2022-12-20T07:00:54;36.07;;;21.37;;
45548;SDS011;31270;48.328;10.096;2022-12-20T07:03:20;35.53;;;21.40;;
45548;SDS011;31270;48.328;10.096;2022-12-20T07:05:50;36.70;;;20.00;;
45548;SDS011;31270;48.328;10.096;2022-12-20T07:08:17;36.83;;;20.23;;
45548;SDS011;31270;48.328;10.096;2022-12-20T07:10:43;35.03;;;20.23;;
45548;SDS011;31270;48.328;10.096;2022-12-20T07:13:09;31.63;;;19.90;;
45548;SDS011;31270;48.328;10.096;2022-12-20T07:15:35;31.63;;;20.07;;
45548;SDS011;31270;48.328;10.096;2022-12-20T07:18:01;38.33;;;21.40;;
45548;SDS011;31270;48.328;10.096;2022-12-20T07:20:27;33.63;;;20.23;;
45548;SDS011;31270;48.328;10.096;2022-12-20T07:22:53;35.33;;;21.20;;
45548;SDS011;31270;48.328;10.096;2022-12-20T07:25:19;33.50;;;21.17;;
45548;SDS011;31270;48.328;10.096;2022-12-20T07:27:47;36.30;;;21.67;;
45548;SDS011;31270;48.328;10.096;2022-12-20T07:30:14;36.43;;;21.43;;
45548;SDS011;31270;48.328;10.096;2022-12-20T07:32:41;36.63;;;22.13;;
45548;SDS011;31270;48.328;10.096;2022-12-20T07:35:08;37.97;;;22.63;;
45548;SDS011;31270;48.328;10.096;2022-12-20T07:37:34;40.23;;;22.83;;
45548;SDS011;31270;48.328;10.096;2022-12-20T07:40:00;39.10;;;22.77;;
45548;SDS011;31270;48.328;10.096;2022-12-20T07:42:25;44.33;;;23.90;;
45548;SDS011;31270;48.328;10.096;2022-12-20T07:44:51;42.13;;;24.60;;
45548;SDS011;31270;48.328;10.096;2022-12-20T07:47:17;43.50;;;24.70;;
45548;SDS011;31270;48.328;10.096;2022-12-20T07:49:43;45.13;;;25.17;;
45548;SDS011;31270;48.328;10.096;2022-12-20T07:52:08;39.20;;;24.90;;
45548;SDS011;31270;48.328;10.096;2022-12-20T07:55:11;48.43;;;27.20;;
45548;SDS011;31270;48.328;10.096;2022-12-20T07:57:36;42.10;;;24.90;;
45548;SDS011;31270;48.328;10.096;2022-12-20T08:00:08;45.80;;;25.37;;
45548;SDS011;31270;48.328;10.096;2022-12-20T08:02:36;43.57;;;26.40;;
45548;SDS011;31270;48.328;10.096;2022-12-20T08:05:06;44.60;;;25.70;;
45548;SDS011;31270;48.328;10.096;2022-12-20T08:07:33;46.57;;;26.13;;
45548;SDS011;31270;48.328;10.096;2022-12-20T08:10:01;44.37;;;26.37;;
45548;SDS011;31270;48.328;10.096;2022-12-20T08:12:28;48.37;;;25.20;;
45548;SDS011;31270;48.328;10.096;2022-12-20T08:14:55;49.70;;;27.43;;
45548;SDS011;31270;48.328;10.096;2022-12-20T08:17:22;44.63;;;24.57;;
45548;SDS011;31270;48.328;10.096;2022-12-20T08:19:48;48.60;;;26.33;;
45548;SDS011;31270;48.328;10.096;2022-12-20T08:22:16;51.73;;;27.50;;
45548;SDS011;31270;48.328;10.096;2022-12-20T08:24:43;50.43;;;26.30;;
45548;SDS011;31270;48.328;10.096;2022-12-20T08:27:09;44.83;;;26.17;;
45548;SDS011;31270;48.328;10.096;2022-12-20T08:29:35;44.50;;;26.67;;
45548;SDS011;31270;48.328;10.096;2022-12-20T08:32:00;53.73;;;28.03;;
45548;SDS011;31270;48.328;10.096;2022-12-20T08:34:26;49.60;;;26.83;;
45548;SDS011;31270;48.328;10.096;2022-12-20T08:36:52;50.20;;;26.93;;
45548;SDS011;31270;48.328;10.096;2022-12-20T08:39:17;61.33;;;27.90;;
45548;SDS011;31270;48.328;10.096;2022-12-20T08:41:43;50.07;;;27.17;;
45548;SDS011;31270;48.328;10.096;2022-12-20T08:44:09;47.87;;;26.33;;
45548;SDS011;31270;48.328;10.096;2022-12-20T08:46:35;45.27;;;24.77;;
45548;SDS011;31270;48.328;10.096;2022-12-20T08:49:02;46.67;;;24.93;;
45548;SDS011;31270;48.328;10.096;2022-12-20T08:51:29;46.43;;;25.80;;
45548;SDS011;31270;48.328;10.096;2022-12-20T08:53:55;42.10;;;25.57;;
45548;SDS011;31270;48.328;10.096;2022-12-20T08:56:21;50.10;;;25.97;;
45548;SDS011;31270;48.328;10.096;2022-12-20T08:58:47;37.63;;;24.03;;
45548;SDS011;31270;48.328;10.096;2022-12-20T09:01:16;39.30;;;23.93;;
45548;SDS011;31270;48.328;10.096;2022-12-20T09:03:44;44.47;;;23.93;;
45548;SDS011;31270;48.328;10.096;2022-12-20T09:06:15;41.57;;;25.50;;
45548;SDS011;31270;48.328;10.096;2022-12-20T09:08:44;43.90;;;25.67;;
45548;SDS011;31270;48.328;10.096;2022-12-20T09:11:12;43.93;;;25.67;;
45548;SDS011;31270;48.328;10.096;2022-12-20T09:13:40;40.80;;;24.00;;
45548;SDS011;31270;48.328;10.096;2022-12-20T09:16:08;41.80;;;24.10;;
45548;SDS011;31270;48.328;10.096;2022-12-20T09:18:34;40.13;;;23.57;;
45548;SDS011;31270;48.328;10.096;2022-12-20T09:21:01;41.23;;;24.00;;
45548;SDS011;31270;48.328;10.096;2022-12-20T09:23:29;36.57;;;22.57;;
45548;SDS011;31270;48.328;10.096;2022-12-20T09:25:55;37.77;;;22.80;;
45548;SDS011;31270;48.328;10.096;2022-12-20T09:28:28;43.13;;;24.30;;
45548;SDS011;31270;48.328;10.096;2022-12-20T09:31:02;42.23;;;24.40;;
45548;SDS011;31270;48.328;10.096;2022-12-20T09:33:29;41.83;;;25.23;;
45548;SDS011;31270;48.328;10.096;2022-12-20T09:35:56;42.40;;;25.33;;
45548;SDS011;31270;48.328;10.096;2022-12-20T09:38:25;40.00;;;24.93;;
45548;SDS011;31270;48.328;10.096;2022-12-20T09:40:52;38.40;;;23.73;;
45548;SDS011;31270;48.328;10.096;2022-12-20T09:43:20;41.53;;;23.83;;
45548;SDS011;31270;48.328;10.096;2022-12-20T09:45:49;42.40;;;25.13;;
45548;SDS011;31270;48.328;10.096;2022-12-20T09:48:19;43.33;;;26.87;;
45548;SDS011;31270;48.328;10.096;2022-12-20T09:53:19;40.47;;;24.13;;
45548;SDS011;31270;48.328;10.096;2022-12-20T09:59:03;45.07;;;25.93;;
45548;SDS011;31270;48.328;10.096;2022-12-20T10:01:33;45.97;;;27.30;;
45548;SDS011;31270;48.328;10.096;2022-12-20T10:04:01;42.47;;;26.60;;
45548;SDS011;31270;48.328;10.096;2022-12-20T10:09:09;38.77;;;21.40;;
45548;SDS011;31270;48.328;10.096;2022-12-20T10:20:40;43.93;;;23.73;;
45548;SDS011;31270;48.328;10.096;2022-12-20T10:23:26;45.13;;;24.83;;
45548;SDS011;31270;48.328;10.096;2022-12-20T10:26:23;34.97;;;22.50;;
45548;SDS011;31270;48.328;10.096;2022-12-20T10:28:48;37.60;;;23.17;;
45548;SDS011;31270;48.328;10.096;2022-12-20T10:31:20;38.03;;;23.07;;
45548;SDS011;31270;48.328;10.096;2022-12-20T10:33:46;37.90;;;24.63;;
45548;SDS011;31270;48.328;10.096;2022-12-20T10:36:16;40.30;;;24.27;;
45548;SDS011;31270;48.328;10.096;2022-12-20T10:39:01;37.10;;;22.93;;
45548;SDS011;31270;48.328;10.096;2022-12-20T10:44:04;32.03;;;22.27;;
45548;SDS011;31270;48.328;10.096;2022-12-20T10:46:41;39.93;;;22.90;;
45548;SDS011;31270;48.328;10.096;2022-12-20T10:49:23;33.90;;;21.63;;
45548;SDS011;31270;48.328;10.096;2022-12-20T10:51:53;35.23;;;21.10;;
45548;SDS011;31270;48.328;10.096;2022-12-20T10:54:22;35.87;;;20.43;;
45548;SDS011;31270;48.328;10.096;2022-12-20T10:56:59;36.70;;;21.37;;
45548;SDS011;31270;48.328;10.096;2022-12-20T11:02:01;34.40;;;21.57;;
45548;SDS011;31270;48.328;10.096;2022-12-20T11:04:55;38.30;;;22.70;;
45548;SDS011;31270;48.328;10.096;2022-12-20T11:07:25;39.77;;;24.33;;
45548;SDS011;31270;48.328;10.096;2022-12-20T11:09:54;39.33;;;25.07;;
45548;SDS011;31270;48.328;10.096;2022-12-20T11:12:22;42.03;;;25.30;;
45548;SDS011;31270;48.328;10.096;2022-12-20T11:14:48;39.73;;;26.00;;
45548;SDS011;31270;48.328;10.096;2022-12-20T11:23:14;35.60;;;24.10;;
45548;SDS011;31270;48.328;10.096;2022-12-20T11:28:48;37.07;;;23.53;;
45548;SDS011;31270;48.328;10.096;2022-12-20T11:31:32;39.83;;;24.53;;
45548;SDS011;31270;48.328;10.096;2022-12-20T11:39:58;37.40;;;23.27;;
45548;SDS011;31270;48.328;10.096;2022-12-20T11:53:31;33.50;;;21.00;;
45548;SDS011;31270;48.328;10.096;2022-12-20T11:56:02;33.40;;;21.33;;
45548;SDS011;31270;48.328;10.096;2022-12-20T12:01:18;34.50;;;21.97;;
45548;SDS011;31270;48.328;10.096;2022-12-20T12:06:25;36.63;;;20.70;;
45548;SDS011;31270;48.328;10.096;2022-12-20T12:09:13;35.53;;;20.97;;
45548;SDS011;31270;48.328;10.096;2022-12-20T12:11:57;33.50;;;19.80;;
45548;SDS011;31270;48.328;10.096;2022-12-20T12:17:05;32.73;;;19.80;;
45548;SDS011;31270;48.328;10.096;2022-12-20T12:19:36;27.80;;;18.43;;
45548;SDS011;31270;48.328;10.096;2022-12-20T12:22:06;33.10;;;19.33;;
45548;SDS011;31270;48.328;10.096;2022-12-20T12:24:41;33.40;;;21.27;;
45548;SDS011;31270;48.328;10.096;2022-12-20T12:27:14;35.97;;;21.37;;
45548;SDS011;31270;48.328;10.096;2022-12-20T12:29:47;31.90;;;20.00;;
45548;SDS011;31270;48.328;10.096;2022-12-20T12:32:17;36.10;;;20.67;;
45548;SDS011;31270;48.328;10.096;2022-12-20T12:37:34;35.13;;;21.63;;
45548;SDS011;31270;48.328;10.096;2022-12-20T12:42:53;33.27;;;20.70;;
45548;SDS011;31270;48.328;10.096;2022-12-20T12:45:44;32.83;;;20.23;;
45548;SDS011;31270;48.328;10.096;2022-12-20T12:48:14;32.87;;;19.73;;
45548;SDS011;31270;48.328;10.096;2022-12-20T12:50:48;32.17;;;19.90;;
45548;SDS011;31270;48.328;10.096;2022-12-20T12:53:19;31.63;;;19.23;;
45548;SDS011;31270;48.328;10.096;2022-12-20T12:55:54;30.27;;;19.03;;
45548;SDS011;31270;48.328;10.096;2022-12-20T13:16:42;34.90;;;19.70;;
45548;SDS011;31270;48.328;10.096;2022-12-20T13:21:52;26.17;;;18.73;;
45548;SDS011;31270;48.328;10.096;2022-12-20T13:27:01;37.30;;;24.30;;
45548;SDS011;31270;48.328;10.096;2022-12-20T13:29:32;31.93;;;22.23;;
45548;SDS011;31270;48.328;10.096;2022-12-20T13:32:01;33.03;;;20.93;;
45548;SDS011;31270;48.328;10.096;2022-12-20T13:37:37;35.57;;;21.03;;
45548;SDS011;31270;48.328;10.096;2022-12-20T13:40:21;30.20;;;21.03;;
45548;SDS011;31270;48.328;10.096;2022-12-20T13:42:55;31.57;;;18.20;;
45548;SDS011;31270;48.328;10.096;2022-12-20T13:45:24;31.07;;;18.83;;
45548;SDS011;31270;48.328;10.096;2022-12-20T13:47:54;31.37;;;19.23;;
45548;SDS011;31270;48.328;10.096;2022-12-20T13:50:38;34.90;;;19.20;;
45548;SDS011;31270;48.328;10.096;2022-12-20T13:53:06;34.00;;;20.23;;
45548;SDS011;31270;48.328;10.096;2022-12-20T13:55:44;30.80;;;19.20;;
45548;SDS011;31270;48.328;10.096;2022-12-20T13:58:12;25.50;;;17.27;;
45548;SDS011;31270;48.328;10.096;2022-12-20T14:00:41;23.47;;;16.53;;
45548;SDS011;31270;48.328;10.096;2022-12-20T14:05:46;30.40;;;19.57;;
45548;SDS011;31270;48.328;10.096;2022-12-20T14:08:13;33.37;;;21.13;;
45548;SDS011;31270;48.328;10.096;2022-12-20T14:10:41;30.50;;;20.10;;
45548;SDS011;31270;48.328;10.096;2022-12-20T14:13:18;31.43;;;19.43;;
45548;SDS011;31270;48.328;10.096;2022-12-20T14:15:46;29.73;;;19.53;;
45548;SDS011;31270;48.328;10.096;2022-12-20T14:18:19;29.00;;;18.67;;
45548;SDS011;31270;48.328;10.096;2022-12-20T14:20:50;32.80;;;21.07;;
45548;SDS011;31270;48.328;10.096;2022-12-20T14:23:39;53.13;;;31.80;;
45548;SDS011;31270;48.328;10.096;2022-12-20T14:26:10;58.97;;;32.30;;
45548;SDS011;31270;48.328;10.096;2022-12-20T14:28:39;41.37;;;25.60;;
45548;SDS011;31270;48.328;10.096;2022-12-20T14:34:01;35.10;;;17.33;;
45548;SDS011;31270;48.328;10.096;2022-12-20T14:36:40;25.90;;;17.17;;
45548;SDS011;31270;48.328;10.096;2022-12-20T14:41:59;34.33;;;20.73;;
45548;SDS011;31270;48.328;10.096;2022-12-20T14:44:31;40.80;;;26.20;;
45548;SDS011;31270;48.328;10.096;2022-12-20T14:46:59;43.00;;;27.30;;
45548;SDS011;31270;48.328;10.096;2022-12-20T14:49:31;44.43;;;27.87;;
45548;SDS011;31270;48.328;10.096;2022-12-20T14:52:19;41.07;;;25.97;;
45548;SDS011;31270;48.328;10.096;2022-12-20T14:57:21;46.60;;;27.30;;
45548;SDS011;31270;48.328;10.096;2022-12-20T15:02:47;37.33;;;23.40;;
45548;SDS011;31270;48.328;10.096;2022-12-20T15:08:16;34.97;;;22.60;;
45548;SDS011;31270;48.328;10.096;2022-12-20T15:10:48;34.27;;;22.03;;
45548;SDS011;31270;48.328;10.096;2022-12-20T15:13:34;27.67;;;19.47;;
45548;SDS011;31270;48.328;10.096;2022-12-20T15:16:02;32.23;;;20.93;;
45548;SDS011;31270;48.328;10.096;2022-12-20T15:18:29;29.50;;;20.57;;
45548;SDS011;31270;48.328;10.096;2022-12-20T15:21:05;30.00;;;19.97;;
45548;SDS011;31270;48.328;10.096;2022-12-20T15:23:55;29.30;;;20.33;;
45548;SDS011;31270;48.328;10.096;2022-12-20T15:26:23;29.17;;;21.00;;
45548;SDS011;31270;48.328;10.096;2022-12-20T15:28:50;28.50;;;18.97;;
45548;SDS011;31270;48.328;10.096;2022-12-20T15:31:16;32.17;;;20.17;;
45548;SDS011;31270;48.328;10.096;2022-12-20T15:33:44;32.50;;;21.13;;
45548;SDS011;31270;48.328;10.096;2022-12-20T15:36:17;30.30;;;19.87;;
45548;SDS011;31270;48.328;10.096;2022-12-20T15:38:45;28.07;;;19.53;;
45548;SDS011;31270;48.328;10.096;2022-12-20T15:41:21;27.03;;;19.90;;
45548;SDS011;31270;48.328;10.096;2022-12-20T15:43:59;27.03;;;18.23;;
45548;SDS011;31270;48.328;10.096;2022-12-20T15:46:27;23.33;;;15.37;;
45548;SDS011;31270;48.328;10.096;2022-12-20T15:48:53;23.20;;;15.30;;
45548;SDS011;31270;48.328;10.096;2022-12-20T15:51:32;21.07;;;15.43;;
45548;SDS011;31270;48.328;10.096;2022-12-20T15:54:01;23.23;;;15.37;;
45548;SDS011;31270;48.328;10.096;2022-12-20T15:56:31;21.60;;;14.90;;
45548;SDS011;31270;48.328;10.096;2022-12-20T15:58:57;22.97;;;14.83;;
45548;SDS011;31270;48.328;10.096;2022-12-20T16:01:24;24.87;;;16.03;;
45548;SDS011;31270;48.328;10.096;2022-12-20T16:03:53;24.10;;;16.47;;
45548;SDS011;31270;48.328;10.096;2022-12-20T16:06:19;24.00;;;16.33;;
45548;SDS011;31270;48.328;10.096;2022-12-20T16:08:44;33.27;;;21.23;;
45548;SDS011;31270;48.328;10.096;2022-12-20T16:11:23;33.20;;;20.90;;
45548;SDS011;31270;48.328;10.096;2022-12-20T16:13:52;30.83;;;20.43;;
45548;SDS011;31270;48.328;10.096;2022-12-20T16:16:21;26.20;;;18.73;;
45548;SDS011;31270;48.328;10.096;2022-12-20T16:18:49;34.37;;;21.93;;
45548;SDS011;31270;48.328;10.096;2022-12-20T16:21:18;27.67;;;19.67;;
45548;SDS011;31270;48.328;10.096;2022-12-20T16:23:48;49.87;;;26.57;;
45548;SDS011;31270;48.328;10.096;2022-12-20T16:26:18;35.50;;;21.00;;